Cape Hatteras — WRZ8934 — position and weather

sailwx.info

Track history (hours):
 
Tides and Currents Weather Stations Pressure Air Temp Water Temp Dewpoint Dewpoint Depression Visibility Wind Speed Wind Dir Waves Ship Positions

Oceanographic research ship Cape Hatteras (USA)

Detailed information on ship capabilities available from University of Delaware's Ocean Information Center.

Owner: DUKE UNIVERSITY, BEAUFORT, NC. More information available from US FCC via Universal Licensing System and Coast Guard Vessel Documentation Center.

Last reported at 2018-Nov-02 02:29 UTC. Time now 2018-Dec-18 10:29 UTC.
Position N 33°31' W 078°48'.
Warning: this ship's position is 46 days out of date.

Length 41 m; draft 3.1 m.

Type: Other ship. MMSI: 366929330.

Date/timePositionNaut miles runAvg speedWind from/ knotsBaromVisibWave heightAir tempDewpointWater temp
2018-Nov-02 02:29N 33°31' W 078°48'9 8.1
2018-Nov-02 01:19N 33°24' W 078°56'3 8.1
2018-Nov-02 00:55N 33°22' W 078°59'58 1.8
2018-Oct-31 15:55N 32°46' W 079°53'3 7.8
2018-Oct-31 15:30N 32°49' W 079°55'2 3.7
2018-Oct-31 14:52N 32°51' W 079°56'2 2.2
2018-Oct-31 14:03N 32°50' W 079°56'1 9.8
2018-Oct-31 13:57N 32°49' W 079°55'3 7.1
2018-Oct-31 13:30N 32°46' W 079°53'0 0.3
2018-Oct-31 13:03N 32°46' W 079°53'0 2.1
2018-Oct-31 13:00N 32°46' W 079°53'2 3.3
2018-Oct-31 12:27N 32°45' W 079°51'2 0.1
2018-Oct-30 15:52N 32°46' W 079°53'3 7.6
2018-Oct-30 15:30N 32°49' W 079°55'1 1.9
2018-Oct-30 14:59N 32°49' W 079°56'4 4.1
2018-Oct-30 14:04N 32°46' W 079°53'0 0.6
2018-Oct-30 13:30N 32°46' W 079°53'0 0.4
2018-Oct-30 13:03N 32°46' W 079°53'0 0.9
2018-Oct-30 13:00N 32°46' W 079°53'0 0.4
2018-Oct-30 12:30N 32°46' W 079°53'  
Track history (hours):
 
Tides and Currents Weather Stations Pressure Air Temp Water Temp Dewpoint Dewpoint Depression Visibility Wind Speed Wind Dir Waves Ship Positions

Oceanographic research ship Cape Hatteras (USA)

Detailed information on ship capabilities available from University of Delaware's Ocean Information Center.

Owner: DUKE UNIVERSITY, BEAUFORT, NC. More information available from US FCC via Universal Licensing System and Coast Guard Vessel Documentation Center.

Last reported at 2018-Nov-02 02:29 UTC. Time now 2018-Dec-18 10:29 UTC.
Position N 33°31' W 078°48'.
Warning: this ship's position is 46 days out of date.

Length 41 m; draft 3.1 m.

Type: Other ship. MMSI: 366929330.

Date/timePositionNaut miles runAvg speedWind from/ knotsBaromVisibWave heightAir tempDewpointWater temp
2018-Nov-02 02:29N 33°31' W 078°48'9 8.1
2018-Nov-02 01:19N 33°24' W 078°56'3 8.1
2018-Nov-02 00:55N 33°22' W 078°59'58 1.8
2018-Oct-31 15:55N 32°46' W 079°53'3 7.8
2018-Oct-31 15:30N 32°49' W 079°55'2 3.7
2018-Oct-31 14:52N 32°51' W 079°56'2 2.2
2018-Oct-31 14:03N 32°50' W 079°56'1 9.8
2018-Oct-31 13:57N 32°49' W 079°55'3 7.1
2018-Oct-31 13:30N 32°46' W 079°53'0 0.3
2018-Oct-31 13:03N 32°46' W 079°53'0 2.1
2018-Oct-31 13:00N 32°46' W 079°53'2 3.3
2018-Oct-31 12:27N 32°45' W 079°51'2 0.1
2018-Oct-30 15:52N 32°46' W 079°53'3 7.6
2018-Oct-30 15:30N 32°49' W 079°55'1 1.9
2018-Oct-30 14:59N 32°49' W 079°56'4 4.1
2018-Oct-30 14:04N 32°46' W 079°53'0 0.6
2018-Oct-30 13:30N 32°46' W 079°53'0 0.4
2018-Oct-30 13:03N 32°46' W 079°53'0 0.9
2018-Oct-30 13:00N 32°46' W 079°53'0 0.4
2018-Oct-30 12:30N 32°46' W 079°53'  

Dump ship's entire track history